createdAt,value
2018-10-02T00:02:06.966Z,7.30
2018-10-02T00:04:36.152Z,7.30
2018-10-02T00:07:05.272Z,7.30
2018-10-02T00:09:34.385Z,7.20
2018-10-02T00:12:08.678Z,7.20
2018-10-02T00:14:38.426Z,7.20
2018-10-02T00:17:07.473Z,7.10
2018-10-02T00:19:36.515Z,7.10
2018-10-02T00:22:05.584Z,7.10
2018-10-02T00:24:34.643Z,7.10
2018-10-02T00:27:03.617Z,7.00
2018-10-02T00:29:32.725Z,7.00
2018-10-02T00:32:01.963Z,7.00
2018-10-02T00:34:32.350Z,7.00
2018-10-02T00:37:01.390Z,7.00
2018-10-02T00:39:30.383Z,6.90
2018-10-02T00:41:59.377Z,7.00
2018-10-02T00:44:28.370Z,6.90
2018-10-02T00:46:57.324Z,6.90
2018-10-02T00:49:26.497Z,6.90
2018-10-02T00:51:55.453Z,6.80
2018-10-02T00:54:24.480Z,6.80
2018-10-02T00:56:53.448Z,6.80
2018-10-02T00:59:22.458Z,6.80
2018-10-02T01:01:51.569Z,6.80
2018-10-02T01:04:20.688Z,6.80
2018-10-02T01:06:49.690Z,6.80
2018-10-02T01:09:18.726Z,6.70
2018-10-02T01:11:47.760Z,6.70
2018-10-02T01:14:16.806Z,6.70
2018-10-02T01:16:45.888Z,6.70
2018-10-02T01:19:14.986Z,6.70
2018-10-02T01:21:43.961Z,6.70
2018-10-02T01:24:13.074Z,6.70
2018-10-02T01:26:42.262Z,6.60
2018-10-02T01:29:11.244Z,6.60
2018-10-02T01:31:40.271Z,6.70
2018-10-02T01:34:09.372Z,6.60
2018-10-02T01:36:38.395Z,6.60
2018-10-02T01:39:09.031Z,6.60
2018-10-02T01:41:38.047Z,6.60
2018-10-02T01:44:07.144Z,6.60
2018-10-02T01:46:36.148Z,6.50
2018-10-02T01:49:05.283Z,6.50
2018-10-02T01:51:34.767Z,6.50
2018-10-02T01:54:03.719Z,6.50
2018-10-02T01:56:32.803Z,6.50
2018-10-02T01:59:01.854Z,6.50
2018-10-02T02:01:37.531Z,6.50
2018-10-02T02:04:06.585Z,6.50
2018-10-02T02:06:36.472Z,6.50
2018-10-02T02:09:06.384Z,6.40
2018-10-02T02:11:35.582Z,6.40
2018-10-02T02:14:04.746Z,6.40
2018-10-02T02:16:33.804Z,6.40
2018-10-02T02:19:02.834Z,6.40
2018-10-02T02:21:31.918Z,6.40
2018-10-02T02:24:00.933Z,6.30
2018-10-02T02:26:29.843Z,6.30
2018-10-02T02:28:58.901Z,6.30
2018-10-02T02:31:27.880Z,6.30
2018-10-02T02:33:56.852Z,6.30
2018-10-02T02:36:25.769Z,6.30
2018-10-02T02:38:54.736Z,6.30
2018-10-02T02:41:23.771Z,6.30
2018-10-02T02:43:52.860Z,6.30
2018-10-02T02:46:21.909Z,6.30
2018-10-02T02:48:56.077Z,6.30
2018-10-02T02:51:31.423Z,6.30
2018-10-02T02:54:00.387Z,6.20
2018-10-02T02:56:29.987Z,6.20
2018-10-02T02:58:59.887Z,6.30
2018-10-02T03:01:29.538Z,6.20
2018-10-02T03:03:58.929Z,6.20
2018-10-02T03:06:27.917Z,6.20
2018-10-02T03:08:56.881Z,6.20
2018-10-02T03:11:25.792Z,6.20
2018-10-02T03:13:54.773Z,6.20
2018-10-02T03:16:23.727Z,6.20
2018-10-02T03:18:53.286Z,6.20
2018-10-02T03:21:22.241Z,6.20
2018-10-02T03:23:51.186Z,6.20
2018-10-02T03:26:20.148Z,6.20
2018-10-02T03:28:49.082Z,6.10
2018-10-02T03:31:18.024Z,6.20
2018-10-02T03:33:46.981Z,6.10
2018-10-02T03:36:15.920Z,6.20
2018-10-02T03:38:45.444Z,6.20
2018-10-02T03:41:14.448Z,6.20
2018-10-02T03:43:43.393Z,6.20
2018-10-02T03:46:12.330Z,6.20
2018-10-02T03:48:41.305Z,6.10
2018-10-02T03:51:10.222Z,6.10
2018-10-02T03:53:39.139Z,6.10
2018-10-02T03:56:08.141Z,6.10
2018-10-02T03:58:37.043Z,6.10
2018-10-02T04:01:06.306Z,6.10
2018-10-02T04:03:35.343Z,6.10
2018-10-02T04:06:04.199Z,6.10
2018-10-02T04:08:33.183Z,6.10
2018-10-02T04:11:02.653Z,6.00
2018-10-02T04:13:31.689Z,6.10
2018-10-02T04:16:00.633Z,6.00
2018-10-02T04:18:29.565Z,6.00
2018-10-02T04:20:58.506Z,6.00
2018-10-02T04:23:27.485Z,6.00
2018-10-02T04:25:56.449Z,6.00
2018-10-02T04:28:25.927Z,6.00
2018-10-02T04:30:54.800Z,6.00
2018-10-02T04:33:23.852Z,6.00
2018-10-02T04:35:53.196Z,6.10
2018-10-02T04:38:22.296Z,6.10
2018-10-02T04:40:51.898Z,6.00
2018-10-02T04:43:20.903Z,6.00
2018-10-02T04:45:50.667Z,6.00
2018-10-02T04:48:19.602Z,6.00
2018-10-02T04:50:49.420Z,6.00
2018-10-02T04:53:21.159Z,6.00
2018-10-02T04:55:50.122Z,6.00
2018-10-02T04:58:19.051Z,6.00
2018-10-02T05:00:48.090Z,6.00
2018-10-02T05:03:17.265Z,6.00
2018-10-02T05:05:46.244Z,6.00
2018-10-02T05:08:15.306Z,6.00
2018-10-02T05:10:44.335Z,6.00
2018-10-02T05:13:13.418Z,6.00
2018-10-02T05:15:42.866Z,6.00
2018-10-02T05:18:11.850Z,6.00
2018-10-02T05:20:41.025Z,6.10
2018-10-02T05:23:10.212Z,6.10
2018-10-02T05:25:39.313Z,6.10
2018-10-02T05:28:08.362Z,6.10
2018-10-02T05:30:37.360Z,6.10
2018-10-02T05:33:06.560Z,6.10
2018-10-02T05:35:35.866Z,6.20
2018-10-02T05:38:04.900Z,6.20
2018-10-02T05:40:33.947Z,6.20
2018-10-02T05:43:02.897Z,6.20
2018-10-02T05:45:31.967Z,6.20
2018-10-02T05:48:01.065Z,6.20
2018-10-02T05:50:30.127Z,6.30
2018-10-02T05:52:59.247Z,6.30
2018-10-02T05:55:28.319Z,6.40
2018-10-02T05:57:57.367Z,6.40
2018-10-02T06:00:26.445Z,6.50
2018-10-02T06:02:55.576Z,6.50
2018-10-02T06:05:24.623Z,6.50
2018-10-02T06:07:53.621Z,6.50
2018-10-02T06:10:22.619Z,6.60
2018-10-02T06:12:51.608Z,6.60
2018-10-02T06:15:20.662Z,6.60
2018-10-02T06:17:49.615Z,6.70
2018-10-02T06:20:23.369Z,6.70
2018-10-02T06:22:53.800Z,6.80
2018-10-02T06:25:22.899Z,6.90
2018-10-02T06:27:51.910Z,7.00
2018-10-02T06:30:20.952Z,7.10
2018-10-02T06:32:50.099Z,7.30
2018-10-02T06:35:19.174Z,7.40
2018-10-02T06:37:48.158Z,7.60
2018-10-02T06:40:17.289Z,7.70
2018-10-02T06:42:46.383Z,7.90
2018-10-02T06:45:15.447Z,8.20
2018-10-02T06:47:44.430Z,8.40
2018-10-02T06:50:13.333Z,8.40
2018-10-02T06:52:42.527Z,8.60
2018-10-02T06:55:11.189Z,8.90
2018-10-02T06:57:40.175Z,9.10
2018-10-02T07:00:09.340Z,9.10
2018-10-02T07:02:38.310Z,9.20
2018-10-02T07:05:07.327Z,8.90
2018-10-02T07:07:36.443Z,8.90
2018-10-02T07:10:06.397Z,8.90
2018-10-02T07:12:35.557Z,9.20
2018-10-02T07:15:04.692Z,9.50
2018-10-02T07:17:34.162Z,9.60
2018-10-02T07:20:03.216Z,9.50
2018-10-02T07:22:32.265Z,9.30
2018-10-02T07:25:01.300Z,9.10
2018-10-02T07:27:31.056Z,8.70
2018-10-02T07:29:59.915Z,8.80
2018-10-02T07:32:29.971Z,9.00
2018-10-02T07:34:58.970Z,9.00
2018-10-02T07:37:28.128Z,9.10
2018-10-02T07:39:57.306Z,9.20
2018-10-02T07:42:26.463Z,9.20
2018-10-02T07:44:56.096Z,9.50
2018-10-02T07:47:25.075Z,10.30
2018-10-02T07:49:54.164Z,11.50
2018-10-02T07:52:24.387Z,12.20
2018-10-02T07:54:54.479Z,11.30
2018-10-02T07:57:23.440Z,10.60
2018-10-02T07:59:52.720Z,10.70
2018-10-02T08:02:21.844Z,10.70
2018-10-02T08:04:51.109Z,10.50
2018-10-02T08:07:20.059Z,11.40
2018-10-02T08:09:49.170Z,12.20
2018-10-02T08:12:18.239Z,13.10
2018-10-02T08:14:47.229Z,13.30
2018-10-02T08:17:16.272Z,12.60
2018-10-02T08:19:45.326Z,11.80
2018-10-02T08:22:14.410Z,11.50
2018-10-02T08:24:43.534Z,12.00
2018-10-02T08:27:12.722Z,12.20
2018-10-02T08:29:41.907Z,12.20
2018-10-02T08:32:10.840Z,12.20
2018-10-02T08:34:39.952Z,11.90
2018-10-02T08:37:09.114Z,11.80
2018-10-02T08:39:38.101Z,11.40
2018-10-02T08:42:07.100Z,11.10
2018-10-02T08:44:36.201Z,10.80
2018-10-02T08:47:05.415Z,11.00
2018-10-02T08:49:34.408Z,10.90
2018-10-02T08:52:03.430Z,11.10
2018-10-02T08:54:32.401Z,11.30
2018-10-02T08:57:01.481Z,11.10
2018-10-02T08:59:30.496Z,10.80
2018-10-02T09:02:10.691Z,11.10
2018-10-02T09:04:39.699Z,11.40
2018-10-02T09:07:09.039Z,12.00
2018-10-02T09:09:38.041Z,12.50
2018-10-02T09:12:07.155Z,12.80
2018-10-02T09:14:36.183Z,12.70
2018-10-02T09:17:05.206Z,12.30
2018-10-02T09:19:34.295Z,11.90
2018-10-02T09:22:03.295Z,11.80
2018-10-02T09:24:32.357Z,11.90
2018-10-02T09:27:01.393Z,12.30
2018-10-02T09:29:30.421Z,12.60
2018-10-02T09:32:05.169Z,13.60
2018-10-02T09:34:39.699Z,13.70
2018-10-02T09:37:14.330Z,13.90
2018-10-02T09:39:48.693Z,13.90
2018-10-02T09:42:23.447Z,13.30
2018-10-02T09:44:52.708Z,12.90
2018-10-02T09:47:21.861Z,12.90
2018-10-02T09:49:51.224Z,12.90
2018-10-02T09:52:20.520Z,13.00
2018-10-02T09:54:50.341Z,13.00
2018-10-02T09:57:19.582Z,12.50
2018-10-02T09:59:52.633Z,12.70
2018-10-02T10:02:27.166Z,13.00
2018-10-02T10:04:56.686Z,12.70
2018-10-02T10:07:25.687Z,12.80
2018-10-02T10:09:54.942Z,12.50
2018-10-02T10:12:24.207Z,12.60
2018-10-02T10:21:42.531Z,12.20
2018-10-02T10:24:11.840Z,12.10
2018-10-02T10:26:41.738Z,12.20
2018-10-02T10:29:11.901Z,12.00
2018-10-02T10:31:41.109Z,12.00
2018-10-02T10:34:11.205Z,12.20
2018-10-02T10:36:40.385Z,12.00
2018-10-02T10:39:10.063Z,11.80
2018-10-02T10:41:40.088Z,11.80
2018-10-02T10:44:09.121Z,11.80
2018-10-02T10:46:38.132Z,11.70
2018-10-02T10:49:07.084Z,11.90
2018-10-02T10:51:36.061Z,12.00
2018-10-02T10:54:05.158Z,12.00
2018-10-02T10:56:34.423Z,11.90
2018-10-02T10:59:04.701Z,11.90
2018-10-02T11:01:33.787Z,12.00
2018-10-02T11:04:02.766Z,11.90
2018-10-02T11:06:31.968Z,11.80
2018-10-02T11:09:01.092Z,11.80
2018-10-02T11:11:30.126Z,11.60
2018-10-02T11:13:59.179Z,11.60
2018-10-02T11:16:28.556Z,11.50
2018-10-02T11:18:57.508Z,11.40
2018-10-02T11:21:26.492Z,11.20
2018-10-02T11:23:56.607Z,10.90
2018-10-02T11:26:25.572Z,10.90
2018-10-02T11:28:54.566Z,11.00
2018-10-02T11:31:23.618Z,11.10
2018-10-02T11:33:52.533Z,11.10
2018-10-02T11:36:21.621Z,11.10
2018-10-02T11:38:50.598Z,10.80
2018-10-02T11:41:19.572Z,10.80
2018-10-02T11:43:48.694Z,10.80
2018-10-02T11:46:18.056Z,10.80
2018-10-02T11:48:47.022Z,10.70
2018-10-02T11:51:16.115Z,10.80
2018-10-02T11:53:45.144Z,10.80
2018-10-02T11:56:14.153Z,10.80
2018-10-02T11:58:43.109Z,10.60
2018-10-02T12:01:12.135Z,10.50
2018-10-02T12:03:41.193Z,10.40
2018-10-02T12:06:10.183Z,10.50
2018-10-02T12:08:39.280Z,10.60
2018-10-02T12:11:08.266Z,10.70
2018-10-02T12:13:37.417Z,10.80
2018-10-02T12:16:06.376Z,10.80
2018-10-02T12:18:35.384Z,10.70
2018-10-02T12:21:04.676Z,10.80
2018-10-02T12:23:33.759Z,10.70
2018-10-02T12:26:02.705Z,10.70
2018-10-02T12:28:31.796Z,10.70
2018-10-02T12:31:00.779Z,10.70
2018-10-02T12:33:29.793Z,10.70
2018-10-02T12:35:58.748Z,10.60
2018-10-02T12:38:27.857Z,10.60
2018-10-02T12:40:56.903Z,10.50
2018-10-02T12:43:25.961Z,10.40
2018-10-02T12:45:54.918Z,10.50
2018-10-02T12:48:25.907Z,10.40
2018-10-02T12:50:54.907Z,10.40
2018-10-02T12:53:23.953Z,10.40
2018-10-02T12:55:52.975Z,10.40
2018-10-02T12:58:21.971Z,10.40
2018-10-02T13:00:51.128Z,10.40
2018-10-02T13:03:20.532Z,10.20
2018-10-02T13:05:50.178Z,10.10
2018-10-02T13:08:29.209Z,10.00
2018-10-02T13:10:58.300Z,9.90
2018-10-02T13:13:30.689Z,9.90
2018-10-02T13:15:59.818Z,9.80
2018-10-02T13:18:28.935Z,9.90
2018-10-02T13:20:57.992Z,9.70
2018-10-02T13:23:27.232Z,9.70
2018-10-02T13:25:56.234Z,9.50
2018-10-02T13:28:25.284Z,9.40
2018-10-02T13:30:54.476Z,9.40
2018-10-02T13:33:23.480Z,9.40
2018-10-02T13:35:52.707Z,9.40
2018-10-02T13:38:22.913Z,9.40
2018-10-02T13:40:52.135Z,9.30
2018-10-02T13:43:21.409Z,9.20
2018-10-02T13:45:50.427Z,9.20
2018-10-02T13:48:19.511Z,9.20
2018-10-02T13:50:49.596Z,9.20
2018-10-02T13:53:19.261Z,9.10
2018-10-02T13:55:48.443Z,9.20
2018-10-02T13:58:17.661Z,9.20
2018-10-02T14:00:46.720Z,9.20
2018-10-02T14:03:16.023Z,9.20
2018-10-02T14:05:45.096Z,9.20
2018-10-02T14:08:14.895Z,9.20
2018-10-02T14:10:44.078Z,9.30
2018-10-02T14:13:13.566Z,9.20
2018-10-02T14:15:42.826Z,9.10
2018-10-02T14:18:11.810Z,9.00
2018-10-02T14:20:40.898Z,8.90
2018-10-02T14:23:10.259Z,8.80
2018-10-02T14:25:39.338Z,8.80
2018-10-02T14:28:08.486Z,8.80
2018-10-02T14:30:37.556Z,8.80
2018-10-02T14:33:06.632Z,8.80
2018-10-02T14:35:35.772Z,8.80
2018-10-02T14:38:05.011Z,8.90
2018-10-02T14:40:34.082Z,8.90
2018-10-02T14:43:03.413Z,9.00
2018-10-02T14:45:32.566Z,9.00
2018-10-02T14:48:01.603Z,9.10
2018-10-02T14:50:31.958Z,9.10
2018-10-02T14:53:01.019Z,9.20
2018-10-02T14:55:30.431Z,9.20
2018-10-02T14:57:59.584Z,9.30
2018-10-02T15:00:28.577Z,9.30
2018-10-02T15:02:57.649Z,9.30
2018-10-02T15:05:27.020Z,9.30
2018-10-02T15:07:59.151Z,9.30
2018-10-02T15:10:28.996Z,9.20
2018-10-02T15:12:58.321Z,9.10
2018-10-02T15:15:30.637Z,9.10
2018-10-02T15:17:59.877Z,9.00
2018-10-02T15:20:29.109Z,9.00
2018-10-02T15:22:58.293Z,9.00
2018-10-02T15:25:27.379Z,9.00
2018-10-02T15:27:58.826Z,8.90
2018-10-02T15:30:28.427Z,8.90
2018-10-02T15:32:57.588Z,8.90
2018-10-02T15:35:26.812Z,8.80
2018-10-02T15:37:55.972Z,8.80
2018-10-02T15:40:25.060Z,8.80
2018-10-02T15:42:54.140Z,8.90
2018-10-02T15:45:23.364Z,8.90
2018-10-02T15:47:52.681Z,8.90
2018-10-02T15:50:22.148Z,8.80
2018-10-02T15:52:51.330Z,8.90
2018-10-02T15:55:20.504Z,8.80
2018-10-02T15:57:49.639Z,8.90
2018-10-02T16:00:19.481Z,8.90
2018-10-02T16:02:48.911Z,8.90
2018-10-02T16:05:18.050Z,8.90
2018-10-02T16:07:47.295Z,8.90
2018-10-02T16:10:16.510Z,8.90
2018-10-02T16:12:45.577Z,9.00
2018-10-02T16:15:14.693Z,9.00
2018-10-02T16:17:43.822Z,9.00
2018-10-02T16:20:12.945Z,9.00
2018-10-02T16:22:42.046Z,9.10
2018-10-02T16:25:11.224Z,9.00
2018-10-02T16:27:40.289Z,9.10
2018-10-02T16:30:09.407Z,9.10
2018-10-02T16:32:38.512Z,9.10
2018-10-02T16:35:07.802Z,9.10
2018-10-02T16:37:36.977Z,9.20
2018-10-02T16:40:06.172Z,9.10
2018-10-02T16:42:35.451Z,9.20
2018-10-02T16:45:04.589Z,9.10
2018-10-02T16:47:34.332Z,9.20
2018-10-02T16:50:03.642Z,9.20
2018-10-02T16:52:32.760Z,9.20
2018-10-02T16:55:10.102Z,9.20
2018-10-02T16:57:39.390Z,9.10
2018-10-02T17:00:09.212Z,9.20
2018-10-02T17:02:38.390Z,9.20
2018-10-02T17:05:07.578Z,9.20
2018-10-02T17:07:36.699Z,9.20
2018-10-02T17:10:05.920Z,9.20
2018-10-02T17:12:35.187Z,9.30
2018-10-02T17:15:04.770Z,9.30
2018-10-02T17:17:34.149Z,9.30
2018-10-02T17:20:03.954Z,9.40
2018-10-02T17:22:32.980Z,9.40
2018-10-02T17:25:03.027Z,9.40
2018-10-02T17:27:32.387Z,9.40
2018-10-02T17:30:01.498Z,9.40
2018-10-02T17:32:30.673Z,9.40
2018-10-02T17:34:59.943Z,9.40
2018-10-02T17:37:29.297Z,9.40
2018-10-02T17:39:59.844Z,9.40
2018-10-02T17:42:29.054Z,9.40
2018-10-02T17:44:58.502Z,9.40
2018-10-02T17:47:29.245Z,9.40
2018-10-02T17:49:58.636Z,9.30
2018-10-02T17:52:28.026Z,9.30
2018-10-02T17:54:57.592Z,9.30
2018-10-02T17:57:26.680Z,9.30
2018-10-02T17:59:56.141Z,9.40
2018-10-02T18:02:25.302Z,9.40
2018-10-02T18:04:54.511Z,9.30
2018-10-02T18:07:23.922Z,9.40
2018-10-02T18:09:52.978Z,9.30
2018-10-02T18:12:22.425Z,9.40
2018-10-02T18:14:51.764Z,9.40
2018-10-02T18:17:22.852Z,9.40
2018-10-02T18:19:54.671Z,9.40
2018-10-02T18:22:33.224Z,9.40
2018-10-02T18:25:06.352Z,9.50
2018-10-02T18:27:39.321Z,9.50
2018-10-02T18:30:13.263Z,9.50
2018-10-02T18:32:42.701Z,9.60
2018-10-02T18:35:12.173Z,9.60
2018-10-02T18:37:41.758Z,9.60
2018-10-02T18:40:11.152Z,9.70
2018-10-02T18:42:40.853Z,9.70
2018-10-02T18:45:10.399Z,9.70
2018-10-02T18:47:40.778Z,9.70
2018-10-02T18:50:11.160Z,9.80
2018-10-02T18:53:09.762Z,9.80
2018-10-02T18:55:52.212Z,9.80
2018-10-02T18:58:37.369Z,9.90
2018-10-02T19:03:57.980Z,9.90
2018-10-02T19:06:43.648Z,10.00
2018-10-02T19:09:27.794Z,10.00
2018-10-02T19:12:07.406Z,10.00
2018-10-02T19:14:48.025Z,10.10
2018-10-02T19:17:35.146Z,10.10
2018-10-02T19:20:11.352Z,10.10
2018-10-02T19:22:44.485Z,10.20
2018-10-02T19:25:28.197Z,10.20
2018-10-02T19:28:01.608Z,10.30
2018-10-02T19:30:41.344Z,10.30
2018-10-02T19:33:29.295Z,10.30
2018-10-02T19:38:48.488Z,10.40
2018-10-02T19:41:32.740Z,10.40
2018-10-02T19:44:41.267Z,10.40
2018-10-02T19:47:11.689Z,10.50
2018-10-02T19:49:41.987Z,10.50
2018-10-02T19:53:41.854Z,10.40
2018-10-02T19:56:18.061Z,10.50
2018-10-02T19:58:53.936Z,10.50
2018-10-02T20:01:27.829Z,10.50
2018-10-02T20:03:58.956Z,10.50
2018-10-02T20:06:34.338Z,10.50
2018-10-02T20:09:18.127Z,10.60
2018-10-02T20:11:57.223Z,10.60
2018-10-02T20:14:32.640Z,10.60
2018-10-02T20:17:04.014Z,10.60
2018-10-02T20:19:45.108Z,10.70
2018-10-02T20:22:34.689Z,10.60
2018-10-02T20:25:29.455Z,10.60
2018-10-02T20:30:40.396Z,10.60
2018-10-02T20:33:14.146Z,10.60
2018-10-02T20:35:46.585Z,10.60
2018-10-02T20:38:16.565Z,10.60
2018-10-02T20:40:48.944Z,10.60
2018-10-02T20:43:21.000Z,10.70
2018-10-02T20:45:52.712Z,10.70
2018-10-02T20:48:30.426Z,10.80
2018-10-02T20:56:57.748Z,10.80
2018-10-02T20:59:28.375Z,10.80
2018-10-02T21:02:03.018Z,10.80
2018-10-02T21:04:57.518Z,10.80
2018-10-02T21:07:51.190Z,10.80
2018-10-02T21:10:32.783Z,10.80
2018-10-02T21:16:04.188Z,10.80
2018-10-02T21:18:35.110Z,10.80
2018-10-02T21:21:11.841Z,10.80
2018-10-02T21:23:44.267Z,10.80
2018-10-02T21:26:22.682Z,10.80
2018-10-02T21:28:56.692Z,10.70
2018-10-02T21:31:34.983Z,10.70
2018-10-02T21:34:08.520Z,10.70
2018-10-02T21:36:38.176Z,10.70
2018-10-02T21:39:10.950Z,10.70
2018-10-02T21:41:45.171Z,10.70
2018-10-02T21:44:17.515Z,10.70
2018-10-02T21:46:49.829Z,10.80
2018-10-02T21:49:23.571Z,10.70
2018-10-02T21:51:53.177Z,10.70
2018-10-02T21:54:24.849Z,10.70
2018-10-02T21:56:54.232Z,10.70
2018-10-02T21:59:23.581Z,10.70
2018-10-02T22:01:53.804Z,10.80
2018-10-02T22:04:28.997Z,10.80
2018-10-02T22:07:02.831Z,10.80
2018-10-02T22:09:36.611Z,10.80
2018-10-02T22:12:13.472Z,10.80
2018-10-02T22:14:42.946Z,10.90
2018-10-02T22:17:12.768Z,10.90
2018-10-02T22:19:42.915Z,10.80
2018-10-02T22:22:13.594Z,10.90
2018-10-02T22:24:45.986Z,10.90
2018-10-02T22:27:20.056Z,10.90
2018-10-02T22:29:53.800Z,10.90
2018-10-02T22:32:23.069Z,10.90
2018-10-02T22:34:53.060Z,10.90
2018-10-02T22:37:22.842Z,10.90
2018-10-02T22:39:53.218Z,10.90
2018-10-02T22:42:26.070Z,10.90
2018-10-02T22:44:56.063Z,10.90
2018-10-02T22:47:25.320Z,10.90
2018-10-02T22:49:54.991Z,10.90
2018-10-02T22:52:24.002Z,10.90
2018-10-02T22:54:53.373Z,10.90
2018-10-02T22:57:22.570Z,10.90
2018-10-02T22:59:52.075Z,10.90
2018-10-02T23:02:21.441Z,11.00
2018-10-02T23:04:50.556Z,11.00
2018-10-02T23:07:20.197Z,11.00
2018-10-02T23:09:49.257Z,11.00
2018-10-02T23:12:18.450Z,11.00
2018-10-02T23:14:47.659Z,11.00
2018-10-02T23:17:16.966Z,11.00
2018-10-02T23:19:46.180Z,11.00
2018-10-02T23:22:15.302Z,11.00
2018-10-02T23:24:44.638Z,11.10
2018-10-02T23:27:13.679Z,11.10
2018-10-02T23:29:43.774Z,11.10
2018-10-02T23:32:13.206Z,11.20
2018-10-02T23:34:42.235Z,11.20
2018-10-02T23:37:11.567Z,11.20
